Flight Track Log - Related Links

Times and Time Zones

All times are in EDT time to prevent confusion due to time zone crossing. See the N356RK flight status page for this flight to view local times or setup timezone preferences in your user account.

Time Position Orientation Groundspeed Altitude Reporting Facility
EDT Latitude Longitude Course Direction KTS MPH feet Rate Location/Type
Fri 03:50:33 PM 43.5710 -71.6400 263° West 157 181 4,400  Level FlightAware
Fri 03:51:12 PM 43.5680 -71.6730 263° West 159 183 4,400  Level FlightAware
Fri 03:52:48 PM 43.5590 -71.7770 263° West 162 186 4,400  Level FlightAware
Fri 03:53:05 PM 43.5580 -71.7930 265° West 162 186 4,400  Level FlightAware
Fri 03:53:28 PM 43.5560 -71.8180 264° West 161 185 4,400  Level FlightAware
Fri 03:53:53 PM 43.5540 -71.8430 264° West 162 186 4,400  Level FlightAware
Fri 03:54:12 PM 43.5520 -71.8610 261° West 163 188 4,400  Level FlightAware
Fri 03:54:23 PM 43.5510 -71.8740 264° West 163 188 4,400  Level FlightAware
Fri 03:54:45 PM 43.5490 -71.8950 263° West 161 185 4,400  Level FlightAware
Fri 03:55:18 PM 43.5460 -71.9250 262° West 161 185 4,400  Level FlightAware
Fri 03:57:00 PM 43.5373 -72.0267 263° West  Level Estimated
Fri 03:58:00 PM 43.5321 -72.0866 263° West  Level Estimated
Fri 03:59:00 PM 43.5270 -72.1464 263° West  Level Estimated
Fri 04:00:00 PM 43.5217 -72.2062 263° West  Level Estimated
Fri 04:01:00 PM 43.5165 -72.2660 263° West  Level Estimated
Fri 04:02:00 PM 43.5112 -72.3258 263° West  Level Estimated
Fri 04:03:00 PM 43.5059 -72.3856 263° West  Level Estimated
Fri 04:04:00 PM 43.5005 -72.4453 263° West  Level Estimated
Fri 04:05:00 PM 43.4951 -72.5051 263° West  Level Estimated
Fri 04:06:00 PM 43.4897 -72.5648 263° West  Level Estimated
Fri 04:07:00 PM 43.4843 -72.6246 263° West  Level Estimated
Fri 04:08:00 PM 43.4788 -72.6843 263° West  Level Estimated
Fri 04:09:00 PM 43.4733 -72.7440 263° West  Level Estimated
Fri 04:10:00 PM 43.4678 -72.8037 263° West  Level Estimated
Fri 04:11:00 PM 43.4622 -72.8634 263° West  Level Estimated
Fri 04:12:00 PM 43.4566 -72.9231 263° West  Level Estimated
Fri 04:13:00 PM 43.4510 -72.9828 263° West  Level Estimated
Fri 04:14:00 PM 43.4453 -73.0424 263° West  Level Estimated
Fri 04:15:00 PM 43.4396 -73.1021 263° West  Level Estimated
Fri 04:16:00 PM 43.4339 -73.1617 262° West  Level Estimated
Fri 04:17:00 PM 43.4281 -73.2214 262° West  Level Estimated
Fri 04:18:00 PM 43.4224 -73.2810 262° West  Level Estimated
Fri 04:19:00 PM 43.4165 -73.3406 262° West  Level Estimated
Fri 04:20:00 PM 43.4107 -73.4001 262° West  Level Estimated
Fri 04:21:00 PM 43.4048 -73.4597 262° West  Level Estimated
Fri 04:22:00 PM 43.3989 -73.5193 262° West  Level Estimated
Fri 04:23:00 PM 43.3929 -73.5789 262° West  Level Estimated
Fri 04:24:00 PM 43.3870 -73.6384 262° West  Level Estimated
Fri 04:25:00 PM 43.3810 -73.6979 262° West  Level Estimated
Fri 04:26:00 PM 43.3750 -73.7575 262° West  Level Estimated
Fri 04:27:00 PM 43.3689 -73.8170 262° West  Level Estimated
Fri 04:28:00 PM 43.3628 -73.8765 262° West  Level Estimated
Fri 04:29:00 PM 43.3567 -73.9360 262° West  Level Estimated
Fri 04:30:00 PM 43.3505 -73.9954 262° West  Level Estimated
Fri 04:31:00 PM 43.3443 -74.0549 262° West  Level Estimated
Fri 04:32:00 PM 43.3381 -74.1143 262° West  Level Estimated
Fri 04:33:00 PM 43.3319 -74.1738 262° West  Level Estimated
Fri 04:34:00 PM 43.3256 -74.2332 262° West  Level Estimated
Fri 04:35:00 PM 43.3193 -74.2926 262° West  Level Estimated
Fri 04:36:00 PM 43.3129 -74.3520 262° West  Level Estimated
Fri 04:37:00 PM 43.3066 -74.4114 262° West  Level Estimated
Fri 04:38:00 PM 43.3002 -74.4708 262° West  Level Estimated
Fri 04:39:00 PM 43.2937 -74.5301 262° West  Level Estimated
Fri 04:40:00 PM 43.2873 -74.5895 262° West  Level Estimated
Fri 04:41:00 PM 43.2808 -74.6488 261° West  Level Estimated
Fri 04:42:00 PM 43.2743 -74.7082 261° West  Level Estimated
Fri 04:43:00 PM 43.2677 -74.7675 261° West  Level Estimated
Fri 04:44:00 PM 43.2611 -74.8268 261° West  Level Estimated
Fri 04:45:00 PM 43.2545 -74.8860 261° West  Level Estimated
Fri 04:46:00 PM 43.2478 -74.9453 261° West  Level Estimated
Fri 04:47:00 PM 43.2412 -75.0046 261° West  Level Estimated
Fri 04:48:00 PM 43.2345 -75.0638 261° West  Level Estimated
Fri 04:49:00 PM 43.2277 -75.1231 261° West  Level Estimated
Fri 04:50:00 PM 43.2210 -75.1823 261° West  Level Estimated
Fri 04:51:00 PM 43.2141 -75.2415 261° West  Level Estimated
Fri 04:51:59 PM 43.2000 -75.3650 261° West 159 183 4,400  Level FlightAware
Fri 04:52:00 PM 43.2073 -75.3007 261° West  Level Estimated
Fri 04:52:33 PM 43.1960 -75.3940 259° West 159 183 4,400  Level FlightAware
Fri 04:52:52 PM 43.1940 -75.4170 263° West 158 182 4,400  Level FlightAware
Fri 04:53:15 PM 43.1910 -75.4410 260° West 159 183 4,400  Level FlightAware
Fri 04:53:31 PM 43.1890 -75.4550 259° West 158 182 4,400  Level FlightAware
Fri 04:53:49 PM 43.1870 -75.4720 261° West 159 183 4,400  Level FlightAware
Fri 04:54:07 PM 43.1850 -75.4920 262° West 158 182 4,400  Level FlightAware
Fri 04:54:27 PM 43.1830 -75.5120 262° West 157 181 4,400  Level FlightAware
Fri 04:54:43 PM 43.1810 -75.5280 260° West 157 181 4,400  Level FlightAware
Fri 04:55:03 PM 43.1790 -75.5460 261° West 158 182 4,400  Level FlightAware
Fri 04:55:25 PM 43.1760 -75.5690 260° West 157 181 4,400 -143 Level FlightAware
Fri 04:55:45 PM 43.1740 -75.5890 262° West 161 185 4,300 -286 Descending FlightAware
Fri 04:56:07 PM 43.1710 -75.6110 259° West 165 190 4,200 -286 Descending FlightAware
Fri 04:56:27 PM 43.1690 -75.6320 263° West 167 192 4,100 -286 Descending FlightAware
Fri 04:56:49 PM 43.1660 -75.6550 260° West 170 196 4,000 -409 Descending FlightAware
Fri 04:57:11 PM 43.1630 -75.6780 260° West 172 198 3,800 -571 Descending FlightAware
Fri 04:57:31 PM 43.1600 -75.7010 260° West 174 200 3,600 -500 Descending FlightAware
Fri 04:57:47 PM 43.1580 -75.7180 261° West 176 203 3,500 -500 Descending FlightAware
Fri 04:58:07 PM 43.1560 -75.7400 263° West 175 201 3,300 -429 Descending FlightAware
Fri 04:58:29 PM 43.1530 -75.7640 260° West 174 200 3,200 -353 Descending FlightAware
Fri 04:58:41 PM 43.1510 -75.7770 258° West 173 199 3,100 -529 Descending FlightAware
Fri 04:59:03 PM 43.1480 -75.8000 260° West 174 200 2,900 -571 Descending FlightAware
Fri 04:59:23 PM 43.1460 -75.8220 263° West 175 201 2,700 -545 Descending FlightAware
Fri 04:59:47 PM 43.1430 -75.8500 262° West 176 203 2,500 -545 Descending FlightAware
Fri 05:00:07 PM 43.1400 -75.8720 259° West 176 203 2,300 -450 Descending FlightAware
Fri 05:00:27 PM 43.1370 -75.8930 259° West 175 201 2,200 -450 Descending FlightAware
Fri 05:00:47 PM 43.1350 -75.9150 263° West 176 203 2,000 -600 Descending FlightAware
Fri 05:01:07 PM 43.1320 -75.9370 259° West 174 200 1,800 -486 Descending FlightAware
Fri 05:01:24 PM 43.1300 -75.9540 261° West 173 199 1,700  Descending FlightAware
Fri 05:01:43 PM 43.1260 -75.9750 255° West 166 191 1,800  Climbing FlightAware
Fri 05:02:03 PM 43.1220 -75.9950 255° West 163 188 1,700 -409 Descending FlightAware
Fri 05:02:27 PM 43.1170 -76.0170 253° West 160 184 1,500 -545 Descending FlightAware
Fri 05:02:47 PM 43.1120 -76.0370 251° West 156 180 1,300 -857 Descending FlightAware
Fri 05:02:55 PM 43.1110 -76.0450 260° West 153 176 1,100 -692 Descending FlightAware
Fri 05:03:13 PM 43.1100 -76.0630 266° West 137 158 1,000 -375 Descending FlightAware
Fri 05:03:27 PM 43.1100 -76.0740 270° West 118 136 900 -750 Descending FlightAware
Fri 05:03:45 PM 43.1090 -76.0870 264° West 123 142 600 -419 Descending FlightAware
Fri 05:04:10 PM 43.1090 -76.1030 270° West 123 142 600  Level FlightAware
Fri 05:11:00 PM 43.1000 -76.1000 124° Southeast  Level FlightAware
Fri 05:12:00 PM 43.1112 -76.1063 124° Southeast  Level Estimated
Fri 05:13:00 PM 43.1112 -76.1063 124° Southeast  Level Estimated
Fri 05:14:00 PM 43.1112 -76.1063 124° Southeast  Level Estimated
Fri 05:15:00 PM 43.1112 -76.1063 124° Southeast  Level Estimated
Fri 05:16:00 PM 43.1112 -76.1063 124° Southeast  Level Estimated
Fri 05:17:00 PM 43.1112 -76.1063 124° Southeast  Level Estimated
Fri 05:18:00 PM 43.1112 -76.1063 124° Southeast  Level Estimated
Fri 05:19:00 PM 43.1112 -76.1063 124° Southeast  Level Estimated
Fri 05:20:00 PM 43.1112 -76.1063 124° Southeast  Level Estimated
Fri 05:21:00 PM 43.1112 -76.1063 124° Southeast  Level Estimated

Login

Don't have an account? Register now (free) for customized features, flight alerts, and more!